Time;durP1;ratioP1;P1;durP2;ratioP2;P2;SDS_P1;SDS_P2;PMS_P1;PMS_P2;Temp;Humidity;BMP_temperature;BMP_pressure;BME280_temperature;BME280_humidity;BME280_pressure;Samples;Min_cycle;Max_cycle;Signal;HPM_P1;HPM_P2
2024/03/14 00:00:16;;;;;;;14.30;7.33;;;10.10;99.90;;;;;;4974620;28;20999;-71
2024/03/14 00:03:02;;;;;;;11.77;7.97;;;10.10;99.90;;;;;;4975034;28;20550;-71
2024/03/14 00:05:49;;;;;;;24.63;9.37;;;10.00;99.90;;;;;;4970851;28;20553;-71
2024/03/14 00:08:34;;;;;;;18.63;8.53;;;10.00;99.90;;;;;;4973279;28;20453;-71
2024/03/14 00:11:20;;;;;;;15.40;8.67;;;10.00;99.90;;;;;;4974991;28;20487;-72
2024/03/14 00:14:06;;;;;;;14.17;7.63;;;9.90;99.90;;;;;;4973519;28;20536;-71
2024/03/14 00:16:52;;;;;;;13.97;7.33;;;9.90;99.90;;;;;;4969474;28;20875;-72
2024/03/14 00:19:38;;;;;;;12.20;7.50;;;10.00;99.90;;;;;;4973831;28;20452;-73
2024/03/14 00:22:23;;;;;;;10.27;7.30;;;10.00;99.90;;;;;;4970727;28;20453;-71
2024/03/14 00:25:10;;;;;;;10.80;7.77;;;10.00;99.90;;;;;;4974055;28;20453;-71
2024/03/14 00:27:57;;;;;;;9.27;7.93;;;10.00;99.90;;;;;;4968753;28;20546;-71
2024/03/14 00:30:43;;;;;;;16.90;7.40;;;10.00;99.90;;;;;;4980719;28;20925;-71
2024/03/14 00:33:30;;;;;;;11.60;7.00;;;10.10;99.90;;;;;;4970645;28;20544;-72
2024/03/14 00:36:16;;;;;;;8.30;6.63;;;10.10;99.90;;;;;;4974588;28;20476;-71
2024/03/14 00:39:02;;;;;;;12.73;6.90;;;10.00;99.90;;;;;;4974189;28;20534;-71
2024/03/14 00:41:47;;;;;;;8.37;6.93;;;9.90;99.90;;;;;;4971062;28;20832;-71
2024/03/14 00:44:33;;;;;;;7.40;6.40;;;9.90;99.90;;;;;;4972466;28;20473;-72
2024/03/14 00:47:20;;;;;;;16.43;7.00;;;9.90;99.90;;;;;;4972499;28;20820;-71
2024/03/14 00:50:09;;;;;;;10.60;6.33;;;9.90;99.90;;;;;;4971902;28;20509;-71
2024/03/14 00:52:55;;;;;;;8.10;5.90;;;10.00;99.90;;;;;;4967829;28;20465;-71
2024/03/14 00:55:41;;;;;;;14.30;7.20;;;10.00;99.90;;;;;;4983371;28;20473;-71
2024/03/14 00:58:27;;;;;;;16.47;7.33;;;10.00;99.90;;;;;;4982909;28;20457;-73
2024/03/14 01:01:13;;;;;;;7.50;6.63;;;9.90;99.90;;;;;;4986409;28;20485;-70
2024/03/14 01:03:59;;;;;;;12.37;6.60;;;9.90;99.90;;;;;;4978069;28;20593;-70
2024/03/14 01:06:44;;;;;;;7.80;6.20;;;9.90;99.90;;;;;;4974709;28;20988;-72
2024/03/14 01:09:30;;;;;;;10.40;6.87;;;9.80;99.90;;;;;;4976323;28;21075;-72
2024/03/14 01:12:16;;;;;;;11.03;6.97;;;9.80;99.90;;;;;;4989093;28;20454;-71
2024/03/14 01:15:02;;;;;;;9.47;5.60;;;9.80;99.90;;;;;;4979390;28;20477;-72
2024/03/14 01:17:47;;;;;;;12.70;6.13;;;9.90;99.90;;;;;;4979327;28;20705;-70
2024/03/14 01:20:33;;;;;;;12.90;6.60;;;9.80;99.90;;;;;;4977267;28;20480;-71
2024/03/14 01:23:19;;;;;;;13.17;7.73;;;9.80;99.90;;;;;;4975991;28;20512;-71
2024/03/14 01:26:05;;;;;;;10.80;8.60;;;9.80;99.90;;;;;;4971816;28;20916;-71
2024/03/14 01:28:50;;;;;;;10.87;8.57;;;9.80;99.90;;;;;;4978743;28;20994;-72
2024/03/14 01:31:36;;;;;;;10.67;8.13;;;9.90;99.90;;;;;;4984237;28;20560;-72
2024/03/14 01:34:22;;;;;;;11.40;8.07;;;9.80;99.90;;;;;;4977884;28;20471;-71
2024/03/14 01:37:10;;;;;;;16.80;9.17;;;9.90;99.90;;;;;;4982694;28;20831;-71
2024/03/14 01:39:56;;;;;;;14.97;9.63;;;9.90;99.90;;;;;;4980235;28;20989;-71
2024/03/14 01:42:44;;;;;;;14.57;10.37;;;9.90;99.90;;;;;;4972300;28;20518;-71
2024/03/14 01:45:30;;;;;;;11.90;9.00;;;9.90;99.90;;;;;;4987968;28;20459;-71
2024/03/14 01:48:16;;;;;;;15.70;10.47;;;9.90;99.90;;;;;;4980257;28;20468;-71
2024/03/14 01:51:01;;;;;;;13.87;10.17;;;9.90;99.90;;;;;;4987953;28;21277;-72
2024/03/14 01:53:48;;;;;;;16.17;9.80;;;9.90;99.90;;;;;;4985290;28;20451;-71
2024/03/14 01:56:36;;;;;;;16.87;9.40;;;9.90;99.90;;;;;;4976885;28;20896;-70
2024/03/14 01:59:21;;;;;;;22.67;8.80;;;10.00;99.90;;;;;;4976085;28;20452;-72
2024/03/14 02:02:07;;;;;;;16.13;9.53;;;9.90;99.90;;;;;;4977281;28;20447;-70
2024/03/14 02:04:54;;;;;;;14.70;9.80;;;9.80;99.90;;;;;;4977825;28;20448;-71
2024/03/14 02:07:39;;;;;;;11.70;9.43;;;9.90;99.90;;;;;;4987916;28;20452;-72
2024/03/14 02:10:25;;;;;;;11.80;10.33;;;9.80;99.90;;;;;;4971317;28;20485;-71
2024/03/14 02:13:11;;;;;;;16.20;10.77;;;9.80;99.90;;;;;;4979101;28;20988;-71
2024/03/14 02:15:57;;;;;;;20.77;10.97;;;9.80;99.90;;;;;;4978817;28;20478;-70
2024/03/14 02:18:45;;;;;;;18.67;11.70;;;9.70;99.90;;;;;;4986994;28;20811;-71
2024/03/14 02:21:32;;;;;;;14.63;11.50;;;9.70;99.90;;;;;;4975561;28;20613;-71
2024/03/14 02:24:19;;;;;;;14.90;11.03;;;9.60;99.90;;;;;;4978084;28;20453;-72
2024/03/14 02:27:06;;;;;;;17.50;10.17;;;9.60;99.90;;;;;;4985668;28;20461;-71
2024/03/14 02:29:52;;;;;;;15.93;11.97;;;9.60;99.90;;;;;;4976346;28;20550;-71
2024/03/14 02:32:38;;;;;;;14.70;10.83;;;9.50;99.90;;;;;;4977072;28;20460;-71
2024/03/14 02:35:24;;;;;;;14.23;9.57;;;9.40;99.90;;;;;;4976575;28;21010;-71
2024/03/14 02:38:09;;;;;;;11.03;9.83;;;9.40;99.90;;;;;;4976264;28;20467;-71
2024/03/14 02:40:55;;;;;;;11.83;8.20;;;9.50;99.90;;;;;;4974355;28;20628;-73
2024/03/14 02:43:41;;;;;;;11.20;9.20;;;9.40;99.90;;;;;;4973403;28;20900;-74
2024/03/14 02:46:27;;;;;;;12.57;8.87;;;9.40;99.90;;;;;;4973378;28;20480;-71
2024/03/14 02:49:12;;;;;;;13.53;8.40;;;9.40;99.90;;;;;;4976138;28;20423;-71
2024/03/14 02:51:59;;;;;;;9.97;8.47;;;9.30;99.90;;;;;;4976140;28;20447;-73
2024/03/14 02:54:45;;;;;;;9.30;7.40;;;9.30;99.90;;;;;;4970174;28;20471;-71
2024/03/14 02:57:30;;;;;;;13.30;7.97;;;9.30;99.90;;;;;;4974462;28;21051;-72
2024/03/14 03:00:19;;;;;;;9.30;7.90;;;9.30;99.90;;;;;;4976296;28;20464;-71
2024/03/14 03:03:06;;;;;;;10.50;7.57;;;9.20;99.90;;;;;;4975965;28;20508;-72
2024/03/14 03:05:51;;;;;;;12.17;7.40;;;9.20;99.90;;;;;;4976156;28;20505;-71
2024/03/14 03:08:37;;;;;;;11.80;7.40;;;9.20;99.90;;;;;;4975169;28;20448;-71
2024/03/14 03:11:23;;;;;;;16.40;7.50;;;9.20;99.90;;;;;;4975668;28;20484;-71
2024/03/14 03:14:09;;;;;;;16.67;7.17;;;9.20;99.90;;;;;;4970416;28;20458;-71
2024/03/14 03:16:55;;;;;;;25.27;8.47;;;9.20;99.90;;;;;;4972052;28;20473;-72
2024/03/14 03:19:41;;;;;;;11.57;7.70;;;9.20;99.90;;;;;;4983740;28;20463;-71
2024/03/14 03:23:01;;;;;;;19.40;7.40;;;9.10;99.90;;;;;;4972078;28;20550;-73
2024/03/14 03:25:32;;;;;;;13.83;8.00;;;9.10;99.90;;;;;;4976234;28;20452;-71
2024/03/14 03:28:18;;;;;;;38.00;9.37;;;9.10;99.90;;;;;;4972715;28;20493;-71
2024/03/14 03:31:08;;;;;;;56.43;11.40;;;9.00;99.90;;;;;;4972411;28;20470;-71
2024/03/14 03:33:54;;;;;;;62.33;12.40;;;9.10;99.90;;;;;;4976381;28;20453;-72
2024/03/14 03:36:43;;;;;;;25.47;9.97;;;9.10;99.90;;;;;;4976223;28;20481;-72
2024/03/14 03:39:31;;;;;;;13.90;10.33;;;9.10;99.90;;;;;;4971112;28;20625;-72
2024/03/14 03:42:16;;;;;;;41.70;9.20;;;9.10;99.90;;;;;;4978586;28;20570;-71
2024/03/14 03:45:09;;;;;;;11.77;10.30;;;9.10;99.90;;;;;;4977251;28;20533;-72
2024/03/14 03:47:54;;;;;;;18.03;11.13;;;9.10;99.90;;;;;;4973068;28;20461;-72
2024/03/14 03:50:40;;;;;;;40.33;10.97;;;9.10;99.90;;;;;;4977809;28;20477;-72
2024/03/14 03:53:25;;;;;;;11.80;9.20;;;9.00;99.90;;;;;;4972250;28;20806;-72
2024/03/14 03:56:11;;;;;;;20.43;8.43;;;9.00;99.90;;;;;;4976744;28;20883;-72
2024/03/14 03:58:56;;;;;;;10.00;8.37;;;9.00;99.90;;;;;;4972086;28;20526;-72
2024/03/14 04:01:43;;;;;;;9.37;8.00;;;9.00;99.90;;;;;;4970938;28;20492;-72
2024/03/14 04:04:28;;;;;;;35.77;7.50;;;9.00;99.90;;;;;;4974474;28;20608;-72
2024/03/14 04:07:14;;;;;;;12.23;8.40;;;8.90;99.90;;;;;;4985605;28;20560;-72
2024/03/14 04:10:00;;;;;;;19.97;9.20;;;8.90;99.90;;;;;;4977910;28;20528;-72
2024/03/14 04:12:46;;;;;;;14.20;8.90;;;9.00;99.90;;;;;;4976935;28;20464;-71
2024/03/14 04:15:31;;;;;;;51.27;8.23;;;9.00;99.90;;;;;;4975541;28;20475;-71
2024/03/14 04:18:17;;;;;;;26.53;7.83;;;9.00;99.90;;;;;;4976384;28;20487;-71
2024/03/14 04:21:05;;;;;;;45.73;7.30;;;9.00;99.90;;;;;;4972477;28;20871;-72
2024/03/14 04:23:51;;;;;;;15.30;7.17;;;8.90;99.90;;;;;;4976294;28;20961;-72
2024/03/14 04:26:38;;;;;;;34.60;8.10;;;8.90;99.90;;;;;;4970521;28;20441;-71
2024/03/14 04:29:23;;;;;;;8.20;7.40;;;8.90;99.90;;;;;;4970991;28;20453;-72
2024/03/14 04:32:13;;;;;;;8.70;7.53;;;8.80;99.90;;;;;;4969201;28;20473;-72
2024/03/14 04:34:59;;;;;;;22.07;6.80;;;8.80;99.90;;;;;;4976769;28;20466;-71
2024/03/14 04:37:47;;;;;;;9.87;7.37;;;8.80;99.90;;;;;;4980814;28;20964;-71
2024/03/14 04:40:32;;;;;;;14.20;7.40;;;8.80;99.90;;;;;;4979114;28;20597;-72
2024/03/14 04:43:19;;;;;;;7.73;6.93;;;8.80;99.90;;;;;;4971683;28;20468;-71
2024/03/14 04:46:06;;;;;;;7.30;6.40;;;8.70;99.90;;;;;;4986230;28;20429;-71
2024/03/14 04:48:51;;;;;;;22.73;6.53;;;8.70;99.90;;;;;;4979542;28;20516;-71
2024/03/14 04:51:36;;;;;;;6.43;5.53;;;8.80;99.90;;;;;;4978679;28;20620;-71
2024/03/14 04:54:23;;;;;;;33.13;6.83;;;8.70;99.90;;;;;;4977880;28;20461;-71
2024/03/14 04:57:09;;;;;;;7.83;6.73;;;8.70;99.90;;;;;;4972826;28;20476;-72
2024/03/14 04:59:54;;;;;;;10.40;7.80;;;8.70;99.90;;;;;;4977900;28;20467;-71
2024/03/14 05:02:40;;;;;;;14.67;8.17;;;8.70;99.90;;;;;;4978347;28;20444;-71
2024/03/14 05:05:25;;;;;;;8.37;7.13;;;8.70;99.90;;;;;;4973455;28;20818;-71
2024/03/14 05:08:11;;;;;;;9.03;8.00;;;8.70;99.90;;;;;;4979196;28;20538;-71
2024/03/14 05:10:57;;;;;;;10.90;8.50;;;8.70;99.90;;;;;;4973427;28;20469;-71
2024/03/14 05:13:43;;;;;;;9.93;6.70;;;8.70;99.90;;;;;;4975061;28;20445;-71
2024/03/14 05:16:30;;;;;;;10.53;7.07;;;8.80;99.90;;;;;;4978646;28;21019;-71
2024/03/14 05:19:16;;;;;;;12.17;8.00;;;8.80;99.90;;;;;;4973199;28;20463;-71
2024/03/14 05:22:02;;;;;;;8.10;7.30;;;8.90;99.90;;;;;;4976302;28;20444;-71
2024/03/14 05:24:47;;;;;;;16.63;7.50;;;8.90;99.90;;;;;;4981884;28;20449;-71
2024/03/14 05:27:33;;;;;;;33.63;8.27;;;8.80;99.90;;;;;;4981310;28;20441;-71
2024/03/14 05:30:19;;;;;;;11.03;7.80;;;8.80;99.90;;;;;;4980126;28;20565;-72
2024/03/14 05:33:05;;;;;;;39.13;8.20;;;8.80;99.90;;;;;;4981229;28;20449;-72
2024/03/14 05:35:51;;;;;;;89.13;8.93;;;8.80;99.90;;;;;;4976958;28;20969;-72
2024/03/14 05:38:37;;;;;;;10.77;8.70;;;8.80;99.90;;;;;;4971160;28;20580;-72
2024/03/14 05:41:22;;;;;;;34.40;8.53;;;8.70;99.90;;;;;;4976116;28;20465;-71
2024/03/14 05:44:08;;;;;;;11.47;8.23;;;8.70;99.90;;;;;;4977032;28;20597;-71
2024/03/14 05:46:53;;;;;;;26.57;8.37;;;8.70;99.90;;;;;;4981836;28;20508;-71
2024/03/14 05:49:39;;;;;;;10.73;8.20;;;8.80;99.90;;;;;;4977844;28;20436;-71
2024/03/14 05:52:25;;;;;;;30.77;7.00;;;8.80;99.90;;;;;;4983869;28;21026;-72
2024/03/14 05:55:11;;;;;;;14.67;11.20;;;8.80;99.90;;;;;;4981619;28;20587;-72
2024/03/14 05:57:56;;;;;;;12.93;10.30;;;8.80;99.90;;;;;;4986107;28;20445;-71
2024/03/14 06:00:42;;;;;;;18.30;10.87;;;8.80;99.90;;;;;;4988356;28;20864;-71
2024/03/14 06:03:28;;;;;;;12.93;9.43;;;8.80;99.90;;;;;;4988440;28;20456;-71
2024/03/14 06:06:14;;;;;;;28.00;9.03;;;8.80;99.90;;;;;;4982229;28;20605;-72
2024/03/14 06:09:03;;;;;;;27.53;8.10;;;8.80;99.90;;;;;;4980252;28;20858;-72
2024/03/14 06:11:49;;;;;;;35.27;8.17;;;8.80;99.90;;;;;;4987454;28;20450;-71
2024/03/14 06:14:35;;;;;;;80.43;8.80;;;8.80;99.90;;;;;;4973241;28;20979;-72
2024/03/14 06:17:21;;;;;;;15.40;7.43;;;8.80;99.90;;;;;;4974955;28;20480;-72
2024/03/14 06:20:09;;;;;;;28.10;8.30;;;8.80;99.90;;;;;;4986214;28;20553;-72
2024/03/14 06:22:54;;;;;;;49.90;9.00;;;8.80;99.90;;;;;;4985336;28;20440;-72
2024/03/14 06:25:40;;;;;;;74.57;8.70;;;8.80;99.90;;;;;;4972279;28;21179;-72
2024/03/14 06:28:26;;;;;;;29.10;9.10;;;8.80;99.90;;;;;;4974178;28;20998;-71
2024/03/14 06:31:12;;;;;;;41.57;9.00;;;8.80;99.90;;;;;;4974478;28;20468;-71
2024/03/14 06:33:58;;;;;;;39.07;8.13;;;8.90;99.90;;;;;;4977402;28;20457;-72
2024/03/14 06:36:44;;;;;;;46.77;7.20;;;8.90;99.90;;;;;;4977683;28;20624;-72
2024/03/14 06:39:29;;;;;;;52.20;7.73;;;8.80;99.90;;;;;;4971759;28;20468;-71
2024/03/14 06:42:15;;;;;;;79.30;8.60;;;8.90;99.90;;;;;;4976227;28;20477;-71
2024/03/14 06:45:02;;;;;;;9.90;6.77;;;8.90;99.90;;;;;;4976211;28;20552;-71
2024/03/14 06:47:48;;;;;;;28.00;7.87;;;8.90;99.90;;;;;;4977582;28;20458;-72
2024/03/14 06:50:34;;;;;;;31.83;7.23;;;8.90;99.90;;;;;;4975079;28;20837;-71
2024/03/14 06:53:20;;;;;;;39.67;8.60;;;8.90;99.90;;;;;;4974752;28;20473;-71
2024/03/14 06:56:08;;;;;;;17.80;8.53;;;8.90;99.90;;;;;;4978459;28;20481;-72
2024/03/14 06:58:54;;;;;;;22.40;8.60;;;8.90;99.90;;;;;;4975256;28;20462;-72
2024/03/14 07:01:40;;;;;;;23.47;9.23;;;8.90;99.90;;;;;;4973402;28;21119;-71
2024/03/14 07:04:27;;;;;;;11.23;8.00;;;8.90;99.90;;;;;;4985164;28;20519;-71
2024/03/14 07:07:13;;;;;;;30.63;9.03;;;8.90;99.90;;;;;;4974181;28;20472;-71
2024/03/14 07:09:58;;;;;;;27.87;10.10;;;8.90;99.90;;;;;;4974970;28;20488;-72
2024/03/14 07:12:45;;;;;;;20.10;8.50;;;8.80;99.90;;;;;;4985679;28;20491;-71
2024/03/14 07:15:31;;;;;;;26.33;10.57;;;8.90;99.90;;;;;;4972969;28;20468;-72
2024/03/14 07:18:17;;;;;;;9.93;8.60;;;8.90;99.90;;;;;;4978943;28;20473;-72
2024/03/14 07:21:03;;;;;;;14.80;8.30;;;8.90;99.90;;;;;;4974517;28;20491;-72
2024/03/14 07:23:48;;;;;;;9.70;8.27;;;8.90;99.90;;;;;;4980430;28;20472;-71
2024/03/14 07:26:38;;;;;;;8.27;7.47;;;9.00;99.90;;;;;;4977530;28;20437;-71
2024/03/14 07:29:23;;;;;;;21.77;8.50;;;9.00;99.90;;;;;;4975191;28;20457;-71
2024/03/14 07:32:12;;;;;;;18.23;9.13;;;9.10;99.90;;;;;;4973597;28;20876;-72
2024/03/14 07:34:57;;;;;;;8.97;8.07;;;9.00;99.90;;;;;;4974546;28;20815;-72
2024/03/14 07:37:45;;;;;;;22.33;7.90;;;9.00;99.90;;;;;;4974190;28;21067;-71
2024/03/14 07:40:33;;;;;;;10.47;7.73;;;9.10;99.90;;;;;;4974285;28;21034;-71
2024/03/14 07:43:20;;;;;;;14.83;7.10;;;9.10;99.90;;;;;;4983894;28;20592;-71
2024/03/14 07:46:05;;;;;;;7.67;6.70;;;9.10;99.90;;;;;;4973303;28;20461;-72
2024/03/14 07:48:51;;;;;;;11.93;8.00;;;9.20;99.90;;;;;;4980284;28;20453;-71
2024/03/14 07:51:37;;;;;;;15.43;8.10;;;9.30;99.90;;;;;;4973057;28;20561;-71
2024/03/14 07:54:27;;;;;;;69.80;8.07;;;9.30;99.90;;;;;;4966955;28;20601;-72
2024/03/14 07:57:16;;;;;;;53.90;8.80;;;9.40;99.90;;;;;;4978707;28;20476;-71
2024/03/14 08:00:02;;;;;;;22.57;7.57;;;9.50;99.90;;;;;;4974846;28;20479;-72
2024/03/14 08:02:54;;;;;;;41.07;7.57;;;9.50;99.90;;;;;;4972885;28;20981;-72
2024/03/14 08:05:39;;;;;;;8.37;6.47;;;9.60;99.90;;;;;;4977006;28;20537;-71
2024/03/14 08:08:27;;;;;;;9.33;6.40;;;9.60;99.90;;;;;;4969730;28;20975;-72
2024/03/14 08:11:12;;;;;;;8.10;6.17;;;9.70;99.90;;;;;;4975193;28;20476;-71
2024/03/14 08:14:02;;;;;;;7.17;6.37;;;9.80;99.90;;;;;;4976597;28;20462;-72
2024/03/14 08:16:48;;;;;;;9.30;6.57;;;10.00;99.90;;;;;;4971301;28;20523;-72
2024/03/14 08:19:34;;;;;;;8.30;7.30;;;10.10;99.90;;;;;;4971566;28;20595;-71
2024/03/14 08:22:22;;;;;;;9.70;8.27;;;10.20;99.90;;;;;;4986176;28;20592;-71
2024/03/14 08:25:15;;;;;;;8.70;7.57;;;10.30;99.90;;;;;;4973602;28;20464;-71
2024/03/14 08:28:01;;;;;;;15.73;8.80;;;10.40;99.90;;;;;;4974893;28;20455;-71
2024/03/14 08:30:47;;;;;;;8.80;7.90;;;10.50;99.90;;;;;;4979426;28;20467;-72
2024/03/14 08:33:33;;;;;;;9.60;7.67;;;10.60;99.90;;;;;;4975118;28;20425;-71
2024/03/14 08:36:20;;;;;;;12.03;7.70;;;10.70;99.90;;;;;;4974277;28;20609;-71
2024/03/14 08:39:06;;;;;;;13.30;8.00;;;10.90;99.90;;;;;;4971329;28;20585;-71
2024/03/14 08:41:52;;;;;;;7.40;6.23;;;10.90;99.90;;;;;;4972146;28;20624;-71
2024/03/14 08:44:37;;;;;;;8.10;7.30;;;11.10;99.90;;;;;;4983036;28;20450;-71
2024/03/14 08:47:23;;;;;;;10.70;6.63;;;11.20;99.90;;;;;;4973211;28;20449;-71
2024/03/14 08:50:09;;;;;;;13.50;6.47;;;11.30;99.90;;;;;;4970551;28;20624;-71
2024/03/14 08:52:56;;;;;;;9.93;7.47;;;11.40;99.90;;;;;;4974321;28;20457;-72
2024/03/14 08:55:50;;;;;;;9.03;6.77;;;11.60;99.90;;;;;;4973608;28;20457;-71
2024/03/14 08:58:36;;;;;;;11.00;7.73;;;11.60;99.90;;;;;;4973691;28;20509;-71
2024/03/14 09:01:21;;;;;;;8.90;6.93;;;11.80;99.90;;;;;;4977232;28;20884;-72
2024/03/14 09:04:07;;;;;;;9.30;6.67;;;11.90;99.90;;;;;;4972574;28;20445;-72
2024/03/14 09:06:53;;;;;;;10.37;7.20;;;12.00;99.90;;;;;;4975491;28;20441;-72
2024/03/14 09:09:39;;;;;;;8.93;6.60;;;12.10;99.90;;;;;;4972991;28;20853;-71
2024/03/14 09:12:25;;;;;;;8.57;6.80;;;12.30;99.90;;;;;;4974215;28;20457;-72
2024/03/14 09:15:12;;;;;;;9.43;6.33;;;12.40;99.90;;;;;;4976708;28;20458;-71
2024/03/14 09:17:57;;;;;;;8.40;7.23;;;12.50;99.90;;;;;;4975867;28;21445;-72
2024/03/14 09:20:44;;;;;;;9.97;7.10;;;12.60;99.90;;;;;;4979084;28;21310;-72
2024/03/14 09:23:30;;;;;;;9.77;6.10;;;12.70;99.90;;;;;;4974979;28;20457;-71
2024/03/14 09:26:16;;;;;;;11.03;6.37;;;12.70;99.90;;;;;;4979946;28;20434;-71
2024/03/14 09:29:02;;;;;;;15.00;6.53;;;12.70;99.90;;;;;;4978561;28;20425;-71
2024/03/14 09:31:49;;;;;;;14.73;6.73;;;12.80;99.90;;;;;;4976297;28;20443;-72
2024/03/14 09:34:38;;;;;;;8.20;6.53;;;12.90;99.90;;;;;;4976083;28;20943;-71
2024/03/14 09:37:25;;;;;;;10.83;6.40;;;12.90;99.90;;;;;;4983719;28;20462;-71
2024/03/14 09:40:13;;;;;;;12.00;6.30;;;12.90;99.90;;;;;;4975521;28;20467;-71
2024/03/14 09:42:59;;;;;;;8.40;6.20;;;13.10;99.90;;;;;;4977518;28;20567;-71
2024/03/14 09:45:45;;;;;;;8.80;6.73;;;13.20;99.90;;;;;;4977289;28;20439;-71
2024/03/14 09:48:31;;;;;;;12.40;6.50;;;13.20;99.90;;;;;;4974665;28;20445;-71
2024/03/14 09:51:17;;;;;;;10.50;7.03;;;13.30;99.90;;;;;;4975270;28;20477;-72
2024/03/14 09:54:03;;;;;;;15.10;6.90;;;13.40;99.90;;;;;;4971415;28;20863;-71
2024/03/14 09:56:48;;;;;;;12.63;6.70;;;13.50;99.90;;;;;;4989974;28;20617;-71
2024/03/14 09:59:34;;;;;;;8.77;6.03;;;13.60;99.90;;;;;;4976194;28;20457;-71
2024/03/14 10:02:21;;;;;;;12.53;6.43;;;13.70;99.90;;;;;;4976593;28;20466;-72
2024/03/14 10:05:10;;;;;;;9.83;6.87;;;13.80;99.90;;;;;;4977800;28;20503;-71
2024/03/14 10:07:57;;;;;;;15.07;5.80;;;14.00;99.90;;;;;;4971017;28;20421;-71
2024/03/14 10:10:43;;;;;;;11.80;6.87;;;14.20;99.90;;;;;;4973386;28;20554;-71
2024/03/14 10:13:29;;;;;;;12.73;6.73;;;14.40;99.90;;;;;;4984795;28;20468;-71
2024/03/14 10:16:15;;;;;;;9.30;5.57;;;14.60;99.90;;;;;;4986208;28;20591;-72
2024/03/14 10:19:01;;;;;;;9.37;6.27;;;14.70;99.90;;;;;;4973918;28;20454;-71
2024/03/14 10:21:49;;;;;;;9.20;6.60;;;14.70;99.90;;;;;;4975643;28;20478;-71
2024/03/14 10:24:35;;;;;;;10.20;5.90;;;14.60;99.90;;;;;;4963065;28;21023;-71
2024/03/14 10:27:20;;;;;;;10.03;7.57;;;14.60;99.90;;;;;;4976061;28;20425;-71
2024/03/14 10:30:08;;;;;;;8.57;6.93;;;14.60;99.90;;;;;;4973165;28;20682;-71
2024/03/14 10:32:54;;;;;;;9.00;6.37;;;14.60;99.90;;;;;;4979557;28;20914;-71
2024/03/14 10:35:40;;;;;;;7.40;6.40;;;14.70;99.90;;;;;;4973688;28;20482;-71
2024/03/14 10:38:26;;;;;;;9.27;5.87;;;14.90;99.90;;;;;;4973066;28;20449;-71
2024/03/14 10:41:12;;;;;;;9.93;6.93;;;15.00;99.90;;;;;;4972809;28;20443;-71
2024/03/14 10:43:58;;;;;;;10.50;6.63;;;15.20;99.90;;;;;;4973796;28;20554;-71
2024/03/14 10:46:44;;;;;;;11.10;6.80;;;15.10;99.90;;;;;;4975410;28;20709;-71
2024/03/14 10:49:30;;;;;;;11.20;5.80;;;15.10;99.90;;;;;;4976895;28;20461;-71
2024/03/14 10:52:17;;;;;;;8.23;6.40;;;15.00;99.90;;;;;;4971621;28;21279;-71
2024/03/14 10:55:03;;;;;;;8.40;6.90;;;15.00;99.90;;;;;;4975701;28;20458;-71
2024/03/14 10:57:49;;;;;;;7.60;5.47;;;15.10;99.90;;;;;;4973819;28;20465;-71
2024/03/14 11:00:35;;;;;;;7.80;5.90;;;15.30;99.90;;;;;;4974837;28;20501;-71
2024/03/14 11:03:22;;;;;;;7.97;5.73;;;15.40;99.90;;;;;;4981738;28;20493;-71
2024/03/14 11:06:10;;;;;;;7.60;4.90;;;15.60;99.90;;;;;;4973076;28;20401;-71
2024/03/14 11:08:56;;;;;;;5.70;4.03;;;15.70;99.90;;;;;;4968242;28;20447;-71
2024/03/14 11:11:42;;;;;;;8.10;3.83;;;15.80;99.90;;;;;;4963358;28;20537;-70
2024/03/14 11:14:28;;;;;;;7.83;4.20;;;16.00;99.90;;;;;;4967719;28;20561;-71
2024/03/14 11:17:14;;;;;;;5.13;4.07;;;16.20;99.90;;;;;;4972480;28;20482;-72
2024/03/14 11:20:02;;;;;;;8.10;4.23;;;16.40;99.90;;;;;;4978637;28;20557;-72
2024/03/14 11:22:48;;;;;;;4.67;3.57;;;16.50;99.90;;;;;;4976066;28;20770;-71
2024/03/14 11:25:35;;;;;;;7.87;3.87;;;16.60;99.90;;;;;;4975055;28;20404;-72
2024/03/14 11:28:21;;;;;;;5.87;3.87;;;16.70;99.90;;;;;;4978383;28;20969;-71
2024/03/14 11:31:06;;;;;;;4.07;3.40;;;16.90;99.90;;;;;;4979658;28;21063;-72
2024/03/14 11:33:53;;;;;;;5.27;3.63;;;17.00;99.90;;;;;;4973720;28;20437;-72
2024/03/14 11:36:39;;;;;;;7.60;3.37;;;17.20;99.90;;;;;;4976995;28;20486;-72
2024/03/14 11:39:26;;;;;;;4.20;3.20;;;17.30;99.90;;;;;;4978169;28;20465;-72
2024/03/14 11:42:11;;;;;;;3.40;2.50;;;17.40;99.90;;;;;;4972025;28;20439;-72
2024/03/14 11:44:57;;;;;;;8.10;2.80;;;17.50;99.90;;;;;;4976962;28;20483;-71
2024/03/14 11:47:43;;;;;;;5.23;2.70;;;17.60;99.90;;;;;;4976271;28;20522;-72
2024/03/14 11:50:33;;;;;;;4.80;3.00;;;17.70;99.90;;;;;;4974268;28;20886;-71
2024/03/14 11:53:20;;;;;;;6.30;3.33;;;17.70;99.90;;;;;;4971904;28;20459;-71
2024/03/14 11:56:06;;;;;;;4.20;2.70;;;17.70;99.90;;;;;;4978218;28;20511;-71
2024/03/14 11:58:52;;;;;;;4.40;3.20;;;17.80;99.90;;;;;;4976966;28;20448;-72
2024/03/14 12:01:38;;;;;;;6.67;3.40;;;17.90;99.90;;;;;;4972672;28;20432;-72
2024/03/14 12:04:24;;;;;;;5.90;3.70;;;18.10;99.90;;;;;;4976743;28;20406;-72
2024/03/14 12:07:12;;;;;;;5.27;2.97;;;18.20;99.90;;;;;;4974621;28;20466;-71
2024/03/14 12:09:57;;;;;;;4.37;2.70;;;18.20;99.90;;;;;;4975399;28;20462;-72
2024/03/14 12:12:44;;;;;;;3.77;2.80;;;18.10;99.90;;;;;;4970218;28;20436;-72
2024/03/14 12:15:34;;;;;;;5.00;2.50;;;18.10;99.90;;;;;;4974365;28;20435;-72
2024/03/14 12:18:20;;;;;;;5.77;3.20;;;18.10;99.90;;;;;;4975352;28;20530;-72
2024/03/14 12:21:08;;;;;;;4.03;3.07;;;18.20;99.90;;;;;;4971853;28;20785;-74
2024/03/14 12:23:54;;;;;;;3.93;2.83;;;18.30;99.90;;;;;;4976823;28;20530;-72
2024/03/14 12:26:42;;;;;;;4.83;2.53;;;18.30;99.90;;;;;;4974035;28;20900;-71
2024/03/14 12:29:27;;;;;;;4.00;2.40;;;18.40;99.80;;;;;;4988777;28;20430;-71
2024/03/14 12:32:13;;;;;;;3.30;1.93;;;18.50;95.70;;;;;;4973527;28;20452;-71
2024/03/14 12:35:01;;;;;;;3.10;1.93;;;18.60;90.70;;;;;;4967831;28;20474;-71
2024/03/14 12:37:48;;;;;;;4.47;2.67;;;18.70;92.80;;;;;;4983753;28;20538;-71
2024/03/14 12:40:34;;;;;;;3.57;2.37;;;18.80;80.10;;;;;;4972394;28;20451;-71
2024/03/14 12:43:19;;;;;;;3.53;2.07;;;19.00;85.10;;;;;;4972361;28;20566;-71
2024/03/14 12:46:07;;;;;;;4.10;2.10;;;19.10;85.00;;;;;;4974019;28;20969;-72
2024/03/14 12:48:54;;;;;;;4.43;1.50;;;19.30;78.00;;;;;;4973033;28;20425;-72
2024/03/14 12:51:41;;;;;;;2.47;1.43;;;19.20;62.50;;;;;;4974925;28;20442;-71
2024/03/14 12:54:34;;;;;;;2.00;1.27;;;19.30;64.50;;;;;;4978610;28;20428;-71
2024/03/14 12:57:21;;;;;;;2.67;1.10;;;19.50;62.60;;;;;;4990466;28;20712;-72
2024/03/14 13:00:09;;;;;;;3.00;1.60;;;19.70;60.40;;;;;;4978286;28;20430;-71
2024/03/14 13:02:56;;;;;;;3.40;1.80;;;19.60;59.30;;;;;;4979555;28;20431;-72
2024/03/14 13:05:43;;;;;;;3.27;1.70;;;19.60;63.20;;;;;;4976021;28;20431;-72
2024/03/14 13:08:29;;;;;;;1.93;1.40;;;19.70;68.10;;;;;;4978157;28;20993;-72
2024/03/14 13:11:15;;;;;;;3.40;1.93;;;19.90;64.10;;;;;;4978701;28;20468;-72
2024/03/14 13:14:11;;;;;;;1.70;1.03;;;19.90;52.20;;;;;;4979226;28;20504;-73
2024/03/14 13:16:59;;;;;;;7.40;1.40;;;19.60;51.50;;;;;;4977261;28;20416;-72
2024/03/14 13:19:55;;;;;;;2.60;1.30;;;19.50;53.70;;;;;;4979750;28;20444;-71
2024/03/14 13:22:41;;;;;;;2.40;1.37;;;19.10;49.60;;;;;;4979792;28;20418;-72
2024/03/14 13:25:26;;;;;;;2.70;1.10;;;19.00;56.00;;;;;;4979963;28;20965;-72
2024/03/14 13:28:12;;;;;;;7.67;1.00;;;19.00;54.30;;;;;;4978463;28;20900;-72
2024/03/14 13:30:57;;;;;;;2.57;1.20;;;19.00;59.00;;;;;;4976076;28;20434;-72
2024/03/14 13:33:44;;;;;;;2.57;1.10;;;19.10;57.00;;;;;;4975814;28;20424;-72
2024/03/14 13:36:36;;;;;;;2.57;1.50;;;19.20;58.00;;;;;;4978217;28;20780;-72
2024/03/14 13:39:26;;;;;;;2.33;1.30;;;19.40;52.80;;;;;;4979053;28;20585;-73
2024/03/14 13:42:11;;;;;;;2.27;1.47;;;19.60;59.00;;;;;;4978815;28;20425;-72
2024/03/14 13:44:57;;;;;;;2.83;1.70;;;19.40;52.90;;;;;;4982450;28;20440;-72
2024/03/14 13:47:45;;;;;;;3.13;1.07;;;19.40;52.70;;;;;;4978947;28;20432;-72
2024/03/14 13:50:32;;;;;;;2.90;1.30;;;19.40;56.70;;;;;;4980014;28;20462;-72
2024/03/14 13:53:17;;;;;;;2.00;1.20;;;19.50;51.90;;;;;;4980906;28;20439;-72
2024/03/14 13:56:03;;;;;;;2.23;1.07;;;19.50;49.70;;;;;;4979470;28;20448;-72
2024/03/14 13:58:49;;;;;;;2.37;1.20;;;19.70;49.70;;;;;;4978960;28;20884;-72
2024/03/14 14:01:35;;;;;;;4.70;1.10;;;19.90;41.20;;;;;;4978231;28;20464;-72
2024/03/14 14:04:21;;;;;;;2.07;1.10;;;20.00;41.90;;;;;;4978611;28;20615;-72
2024/03/14 14:07:08;;;;;;;3.50;1.30;;;19.90;39.80;;;;;;4979297;28;20437;-73
2024/03/14 14:09:55;;;;;;;1.90;1.10;;;19.80;44.00;;;;;;4978059;28;20439;-71
2024/03/14 14:12:41;;;;;;;1.63;0.90;;;19.60;43.50;;;;;;4981514;28;20926;-71
2024/03/14 14:15:27;;;;;;;3.20;1.00;;;19.60;32.70;;;;;;4977193;28;20422;-71
2024/03/14 14:18:13;;;;;;;1.90;1.20;;;19.40;33.50;;;;;;4974986;28;20480;-71
2024/03/14 14:20:59;;;;;;;1.90;0.90;;;19.40;37.70;;;;;;4972996;28;21046;-72
2024/03/14 14:23:44;;;;;;;4.47;1.30;;;19.20;36.60;;;;;;4977233;28;20979;-72